createdAt,value
2018-09-01T00:01:05.809Z,92.90
2018-09-01T00:03:34.733Z,93.00
2018-09-01T00:06:03.713Z,93.00
2018-09-01T00:08:32.664Z,93.00
2018-09-01T00:11:01.622Z,93.40
2018-09-01T00:13:30.569Z,93.40
2018-09-01T00:16:00.744Z,93.30
2018-09-01T00:18:29.681Z,93.40
2018-09-01T00:20:58.673Z,93.40
2018-09-01T00:23:27.626Z,93.30
2018-09-01T00:25:56.650Z,93.00
2018-09-01T00:28:25.563Z,92.90
2018-09-01T00:30:54.516Z,92.90
2018-09-01T00:33:23.449Z,92.50
2018-09-01T00:35:52.388Z,92.90
2018-09-01T00:38:26.761Z,93.20
2018-09-01T00:40:56.221Z,93.50
2018-09-01T00:43:25.161Z,93.50
2018-09-01T00:45:54.096Z,93.50
2018-09-01T00:48:23.034Z,93.60
2018-09-01T00:50:52.041Z,93.40
2018-09-01T00:53:20.972Z,93.10
2018-09-01T00:55:49.907Z,92.90
2018-09-01T00:58:18.861Z,92.80
2018-09-01T01:00:47.858Z,92.90
2018-09-01T01:03:16.821Z,93.30
2018-09-01T01:05:45.750Z,93.40
2018-09-01T01:08:14.733Z,93.70
2018-09-01T01:10:43.673Z,93.90
2018-09-01T01:13:12.629Z,94.20
2018-09-01T01:15:41.614Z,94.20
2018-09-01T01:18:10.576Z,93.60
2018-09-01T01:20:39.572Z,93.60
2018-09-01T01:23:08.533Z,93.60
2018-09-01T01:25:37.469Z,93.50
2018-09-01T01:28:06.560Z,93.30
2018-09-01T01:30:35.521Z,93.40
2018-09-01T01:33:08.764Z,93.80
2018-09-01T01:35:37.717Z,93.90
2018-09-01T01:38:06.669Z,94.00
2018-09-01T01:40:35.660Z,93.90
2018-09-01T01:43:04.652Z,93.80
2018-09-01T01:45:33.612Z,93.80
2018-09-01T01:48:02.799Z,93.90
2018-09-01T01:50:31.741Z,94.00
2018-09-01T01:53:00.710Z,94.10
2018-09-01T01:55:30.042Z,93.80
2018-09-01T01:57:58.984Z,93.30
2018-09-01T02:00:27.939Z,93.20
2018-09-01T02:02:56.912Z,93.20
2018-09-01T02:05:31.313Z,93.40
2018-09-01T02:08:00.324Z,93.60
2018-09-01T02:10:29.253Z,93.70
2018-09-01T02:12:58.166Z,93.60
2018-09-01T02:15:27.109Z,93.50
2018-09-01T02:17:56.081Z,93.50
2018-09-01T02:20:25.053Z,93.40
2018-09-01T02:22:53.994Z,92.70
2018-09-01T02:25:23.169Z,93.00
2018-09-01T02:27:52.247Z,93.30
2018-09-01T02:30:21.214Z,93.70
2018-09-01T02:32:50.254Z,93.90
2018-09-01T02:35:19.313Z,94.30
2018-09-01T02:37:48.249Z,94.60
2018-09-01T02:40:17.197Z,95.10
2018-09-01T02:42:46.131Z,95.20
2018-09-01T02:45:15.081Z,94.80
2018-09-01T02:47:44.024Z,94.70
2018-09-01T02:50:12.990Z,94.20
2018-09-01T02:52:41.933Z,93.60
2018-09-01T02:55:10.903Z,94.10
2018-09-01T02:57:39.858Z,93.90
2018-09-01T03:00:14.165Z,94.00
2018-09-01T03:02:46.069Z,93.90
2018-09-01T03:05:16.072Z,93.90
2018-09-01T03:07:45.160Z,93.90
2018-09-01T03:10:14.128Z,94.00
2018-09-01T03:12:43.051Z,94.00
2018-09-01T03:15:12.001Z,94.20
2018-09-01T03:17:40.937Z,94.20
2018-09-01T03:20:09.882Z,94.50
2018-09-01T03:22:38.829Z,94.60
2018-09-01T03:25:07.948Z,94.40
2018-09-01T03:27:36.906Z,94.10
2018-09-01T03:30:06.854Z,93.90
2018-09-01T03:32:35.816Z,93.70
2018-09-01T03:35:05.245Z,93.30
2018-09-01T03:37:34.207Z,93.30
2018-09-01T03:40:03.192Z,93.80
2018-09-01T03:42:32.234Z,94.30
2018-09-01T03:45:01.306Z,95.00
2018-09-01T03:47:30.226Z,95.20
2018-09-01T03:49:59.221Z,95.40
2018-09-01T03:52:28.213Z,95.20
2018-09-01T03:54:57.142Z,95.10
2018-09-01T03:57:26.104Z,95.10
2018-09-01T03:59:55.091Z,95.10
2018-09-01T04:02:24.036Z,94.70
2018-09-01T04:04:52.993Z,94.60
2018-09-01T04:07:21.975Z,94.50
2018-09-01T04:09:51.068Z,94.50
2018-09-01T04:12:20.728Z,94.60
2018-09-01T04:14:49.637Z,94.50
2018-09-01T04:17:18.567Z,94.30
2018-09-01T04:19:47.505Z,94.60
2018-09-01T04:22:16.463Z,94.90
2018-09-01T04:24:45.501Z,95.00
2018-09-01T04:27:14.446Z,95.10
2018-09-01T04:29:43.386Z,95.10
2018-09-01T04:32:12.433Z,94.50
2018-09-01T04:34:41.274Z,94.10
2018-09-01T04:37:10.212Z,93.90
2018-09-01T04:39:39.156Z,94.10
2018-09-01T04:42:08.101Z,94.30
2018-09-01T04:44:37.029Z,94.40
2018-09-01T04:47:07.323Z,94.50
2018-09-01T04:49:36.197Z,94.80
2018-09-01T04:52:05.205Z,94.90
2018-09-01T04:54:34.120Z,94.80
2018-09-01T04:57:03.384Z,94.90
2018-09-01T04:59:33.425Z,94.90
2018-09-01T05:02:02.418Z,95.20
2018-09-01T05:04:31.917Z,95.20
2018-09-01T05:07:00.899Z,93.90
2018-09-01T05:09:29.829Z,93.60
2018-09-01T05:11:58.811Z,93.70
2018-09-01T05:14:27.733Z,94.00
2018-09-01T05:16:57.580Z,94.30
2018-09-01T05:19:26.953Z,94.50
2018-09-01T05:21:55.931Z,94.40
2018-09-01T05:24:24.848Z,94.10
2018-09-01T05:26:53.792Z,94.00
2018-09-01T05:29:22.768Z,93.60
2018-09-01T05:31:51.771Z,92.90
2018-09-01T05:34:20.720Z,93.10
2018-09-01T05:36:49.672Z,93.10
2018-09-01T05:39:18.601Z,93.10
2018-09-01T05:41:47.564Z,93.30
2018-09-01T05:44:16.592Z,93.50
2018-09-01T05:46:45.540Z,93.60
2018-09-01T05:49:14.568Z,93.40
2018-09-01T05:51:43.610Z,92.90
2018-09-01T05:54:12.598Z,92.90
2018-09-01T05:56:41.765Z,92.80
2018-09-01T05:59:17.422Z,92.10
2018-09-01T06:01:56.892Z,91.20
2018-09-01T06:04:26.621Z,89.40
2018-09-01T06:06:55.642Z,86.30
2018-09-01T06:09:25.128Z,84.20
2018-09-01T06:11:54.078Z,83.80
2018-09-01T06:14:23.036Z,82.90
2018-09-01T06:16:52.264Z,82.10
2018-09-01T06:19:21.313Z,82.50
2018-09-01T06:21:50.265Z,81.30
2018-09-01T06:24:19.453Z,80.90
2018-09-01T06:26:48.396Z,79.30
2018-09-01T06:29:19.081Z,77.90
2018-09-01T06:31:57.921Z,75.40
2018-09-01T06:34:30.596Z,73.00
2018-09-01T06:37:00.921Z,68.70
2018-09-01T06:39:29.889Z,66.20
2018-09-01T06:41:58.808Z,64.20
2018-09-01T06:44:27.769Z,62.50
2018-09-01T06:46:56.677Z,62.30
2018-09-01T06:49:25.660Z,62.20
2018-09-01T06:51:54.564Z,63.30
2018-09-01T06:54:23.500Z,62.30
2018-09-01T06:56:52.436Z,62.50
2018-09-01T06:59:21.485Z,59.90
2018-09-01T07:01:50.441Z,58.70
2018-09-01T07:04:19.389Z,56.20
2018-09-01T07:06:49.170Z,54.50
2018-09-01T07:09:18.101Z,52.50
2018-09-01T07:11:47.530Z,50.50
2018-09-01T07:14:16.724Z,49.10
2018-09-01T07:16:46.667Z,47.70
2018-09-01T07:19:15.641Z,47.10
2018-09-01T07:21:44.892Z,45.30
2018-09-01T07:24:18.792Z,44.80
2018-09-01T07:26:49.532Z,44.50
2018-09-01T07:29:18.521Z,44.60
2018-09-01T07:31:47.452Z,45.00
2018-09-01T07:34:16.457Z,45.70
2018-09-01T07:36:45.460Z,46.60
2018-09-01T07:39:15.395Z,48.10
2018-09-01T07:41:44.429Z,50.30
2018-09-01T07:44:13.389Z,51.70
2018-09-01T07:46:42.396Z,53.50
2018-09-01T07:49:11.410Z,55.50
2018-09-01T07:51:40.568Z,57.50
2018-09-01T07:54:11.262Z,58.30
2018-09-01T07:56:40.682Z,57.60
2018-09-01T07:59:09.660Z,58.00
2018-09-01T08:01:38.606Z,57.90
2018-09-01T08:04:07.644Z,57.50
2018-09-01T08:06:36.628Z,57.70
2018-09-01T08:09:07.613Z,57.30
2018-09-01T08:11:36.550Z,58.00
2018-09-01T08:14:05.707Z,59.30
2018-09-01T08:16:34.574Z,58.50
2018-09-01T08:19:03.813Z,57.40
2018-09-01T08:21:33.449Z,56.30
2018-09-01T08:24:02.401Z,66.90
2018-09-01T08:26:31.333Z,56.70
2018-09-01T08:29:00.448Z,57.40
2018-09-01T08:31:29.365Z,58.50
2018-09-01T08:33:58.346Z,59.00
2018-09-01T08:36:27.265Z,59.80
2018-09-01T08:38:57.010Z,60.60
2018-09-01T08:41:25.938Z,62.60
2018-09-01T08:43:54.936Z,62.60
2018-09-01T08:46:23.913Z,63.60
2018-09-01T08:48:52.935Z,63.70
2018-09-01T08:51:21.866Z,64.80
2018-09-01T08:53:50.804Z,64.70
2018-09-01T08:56:21.568Z,65.70
2018-09-01T08:58:50.490Z,65.80
2018-09-01T09:01:19.532Z,65.90
2018-09-01T09:03:48.444Z,65.80
2018-09-01T09:06:18.337Z,65.40
2018-09-01T09:08:47.384Z,64.20
2018-09-01T09:11:16.380Z,64.10
2018-09-01T09:13:45.361Z,64.70
2018-09-01T09:16:14.347Z,63.70
2018-09-01T09:18:43.314Z,63.90
2018-09-01T09:21:12.257Z,64.70
2018-09-01T09:23:41.193Z,64.70
2018-09-01T09:26:10.125Z,63.60
2018-09-01T09:28:39.057Z,63.80
2018-09-01T09:31:07.996Z,63.50
2018-09-01T09:33:36.948Z,63.30
2018-09-01T09:36:05.918Z,63.00
2018-09-01T09:38:34.842Z,62.80
2018-09-01T09:41:03.797Z,61.90
2018-09-01T09:43:32.763Z,62.00
2018-09-01T09:46:01.709Z,60.90
2018-09-01T09:48:30.673Z,61.00
2018-09-01T09:50:59.632Z,61.10
2018-09-01T09:53:28.557Z,62.00
2018-09-01T09:55:57.547Z,63.30
2018-09-01T09:58:26.522Z,64.00
2018-09-01T10:01:04.035Z,64.70
2018-09-01T10:03:35.630Z,65.20
2018-09-01T10:06:04.645Z,64.50
2018-09-01T10:08:33.568Z,64.00
2018-09-01T10:11:03.982Z,64.50
2018-09-01T10:13:32.924Z,63.50
2018-09-01T10:16:01.994Z,63.30
2018-09-01T10:18:30.839Z,62.80
2018-09-01T10:20:59.808Z,62.00
2018-09-01T10:23:28.773Z,60.60
2018-09-01T10:25:57.785Z,62.00
2018-09-01T10:28:26.738Z,61.60
2018-09-01T10:30:55.686Z,60.60
2018-09-01T10:33:24.611Z,61.90
2018-09-01T10:35:53.594Z,61.40
2018-09-01T10:38:22.531Z,60.80
2018-09-01T10:40:51.456Z,61.90
2018-09-01T10:43:20.384Z,61.20
2018-09-01T10:45:49.958Z,61.20
2018-09-01T10:48:18.876Z,61.70
2018-09-01T10:50:47.932Z,62.10
2018-09-01T10:53:16.860Z,61.10
2018-09-01T10:55:45.810Z,67.90
2018-09-01T10:58:14.741Z,71.20
2018-09-01T11:00:43.703Z,61.20
2018-09-01T11:03:12.650Z,61.00
2018-09-01T11:05:41.676Z,61.50
2018-09-01T11:08:10.572Z,62.30
2018-09-01T11:10:39.524Z,64.00
2018-09-01T11:13:08.486Z,62.40
2018-09-01T11:15:37.496Z,62.00
2018-09-01T11:18:06.408Z,62.20
2018-09-01T11:20:35.396Z,60.90
2018-09-01T11:25:32.924Z,75.60
2018-09-01T11:28:02.040Z,64.50
2018-09-01T11:30:30.975Z,64.40
2018-09-01T11:33:00.147Z,64.30
2018-09-01T11:35:30.891Z,63.90
2018-09-01T11:38:00.352Z,64.30
2018-09-01T11:40:29.646Z,63.60
2018-09-01T11:43:00.341Z,63.30
2018-09-01T11:45:29.384Z,63.80
2018-09-01T11:47:59.225Z,62.80
2018-09-01T11:50:28.184Z,62.50
2018-09-01T11:52:57.667Z,62.70
2018-09-01T11:55:27.280Z,62.70
2018-09-01T11:57:56.257Z,62.30
2018-09-01T12:00:25.184Z,61.40
2018-09-01T12:02:55.798Z,60.60
2018-09-01T12:05:25.010Z,61.40
2018-09-01T12:07:55.108Z,59.80
2018-09-01T12:10:24.050Z,58.10
2018-09-01T12:12:53.780Z,57.20
2018-09-01T12:15:22.804Z,57.00
2018-09-01T12:17:51.800Z,56.70
2018-09-01T12:20:20.796Z,57.60
2018-09-01T12:22:49.741Z,56.90
2018-09-01T12:25:18.667Z,58.10
2018-09-01T12:27:47.636Z,57.90
2018-09-01T12:30:16.565Z,59.80
2018-09-01T12:32:45.515Z,60.30
2018-09-01T12:35:14.594Z,59.70
2018-09-01T12:37:43.535Z,60.20
2018-09-01T12:40:12.716Z,61.10
2018-09-01T12:42:41.668Z,61.70
2018-09-01T12:45:10.597Z,62.00
2018-09-01T12:47:41.907Z,60.90
2018-09-01T12:50:11.440Z,60.10
2018-09-01T12:52:40.380Z,61.20
2018-09-01T12:55:09.028Z,59.30
2018-09-01T12:57:37.965Z,57.80
2018-09-01T13:00:07.054Z,57.50
2018-09-01T13:02:36.095Z,56.70
2018-09-01T13:05:06.339Z,57.40
2018-09-01T13:07:35.291Z,57.10
2018-09-01T13:10:04.291Z,56.50
2018-09-01T13:12:33.256Z,57.00
2018-09-01T13:15:02.179Z,58.00
2018-09-01T13:17:31.143Z,57.50
2018-09-01T13:20:00.061Z,57.70
2018-09-01T13:22:29.013Z,56.60
2018-09-01T13:24:58.023Z,57.30
2018-09-01T13:27:27.027Z,58.50
2018-09-01T13:29:55.948Z,57.90
2018-09-01T13:32:24.903Z,57.60
2018-09-01T13:34:53.846Z,57.00
2018-09-01T13:37:22.788Z,57.00
2018-09-01T13:39:51.768Z,57.60
2018-09-01T13:42:20.737Z,57.40
2018-09-01T13:44:54.481Z,58.00
2018-09-01T13:47:23.452Z,57.90
2018-09-01T13:49:52.385Z,57.60
2018-09-01T13:52:21.348Z,57.70
2018-09-01T13:54:50.281Z,57.70
2018-09-01T13:57:19.256Z,57.60
2018-09-01T13:59:48.200Z,57.20
2018-09-01T14:02:23.788Z,57.70
2018-09-01T14:04:52.740Z,57.90
2018-09-01T14:07:21.697Z,56.50
2018-09-01T14:09:50.639Z,57.30
2018-09-01T14:12:19.755Z,57.40
2018-09-01T14:14:49.904Z,57.30
2018-09-01T14:17:25.281Z,57.00
2018-09-01T14:19:54.283Z,56.60
2018-09-01T14:22:24.676Z,56.40
2018-09-01T14:24:53.630Z,55.90
2018-09-01T14:27:22.600Z,56.00
2018-09-01T14:29:51.593Z,56.50
2018-09-01T14:32:20.519Z,55.60
2018-09-01T14:34:49.460Z,54.80
2018-09-01T14:37:18.460Z,56.00
2018-09-01T14:39:47.381Z,56.10
2018-09-01T14:42:16.336Z,56.50
2018-09-01T14:44:45.399Z,57.00
2018-09-01T14:47:14.374Z,57.60
2018-09-01T14:49:43.338Z,56.40
2018-09-01T14:52:12.248Z,56.20
2018-09-01T14:54:41.184Z,56.50
2018-09-01T14:57:11.485Z,55.50
2018-09-01T14:59:40.506Z,56.00
2018-09-01T15:02:09.461Z,55.90
2018-09-01T15:04:38.599Z,54.30
2018-09-01T15:07:08.597Z,54.00
2018-09-01T15:09:37.533Z,54.80
2018-09-01T15:12:06.495Z,54.00
2018-09-01T15:14:35.452Z,54.70
2018-09-01T15:17:04.817Z,55.50
2018-09-01T15:19:34.279Z,55.50
2018-09-01T15:22:03.588Z,55.80
2018-09-01T15:24:32.995Z,56.10
2018-09-01T15:27:04.439Z,56.50
2018-09-01T15:29:33.836Z,56.20
2018-09-01T15:32:02.776Z,55.40
2018-09-01T15:34:31.852Z,56.80
2018-09-01T15:37:00.773Z,57.00
2018-09-01T15:39:29.805Z,57.20
2018-09-01T15:41:59.362Z,57.40
2018-09-01T15:44:28.373Z,57.20
2018-09-01T15:46:57.284Z,57.40
2018-09-01T15:49:26.237Z,57.90
2018-09-01T15:51:55.949Z,58.10
2018-09-01T15:54:24.923Z,57.60
2018-09-01T15:56:54.015Z,57.60
2018-09-01T15:59:23.226Z,57.20
2018-09-01T16:01:53.052Z,57.30
2018-09-01T16:04:22.580Z,57.30
2018-09-01T16:06:51.534Z,57.20
2018-09-01T16:09:20.554Z,57.00
2018-09-01T16:11:49.518Z,56.80
2018-09-01T16:14:18.829Z,56.60
2018-09-01T16:16:47.755Z,56.50
2018-09-01T16:19:16.720Z,56.60
2018-09-01T16:21:45.656Z,56.80
2018-09-01T16:24:14.621Z,57.50
2018-09-01T16:26:43.548Z,57.40
2018-09-01T16:29:12.492Z,57.10
2018-09-01T16:31:41.406Z,57.30
2018-09-01T16:34:11.748Z,57.50
2018-09-01T16:36:40.809Z,57.70
2018-09-01T16:39:10.737Z,57.50
2018-09-01T16:41:41.756Z,57.60
2018-09-01T16:44:11.678Z,57.80
2018-09-01T16:46:41.126Z,57.80
2018-09-01T16:49:10.192Z,57.60
2018-09-01T16:51:39.249Z,57.70
2018-09-01T16:54:08.302Z,57.50
2018-09-01T16:56:39.159Z,57.80
2018-09-01T16:59:08.135Z,57.90
2018-09-01T17:01:37.101Z,58.10
2018-09-01T17:04:06.125Z,58.10
2018-09-01T17:06:35.277Z,58.50
2018-09-01T17:09:05.304Z,58.40
2018-09-01T17:11:34.325Z,58.60
2018-09-01T17:14:03.713Z,58.90
2018-09-01T17:16:32.804Z,59.10
2018-09-01T17:19:01.780Z,59.90
2018-09-01T17:21:30.789Z,59.90
2018-09-01T17:23:59.872Z,61.00
2018-09-01T17:26:38.081Z,60.90
2018-09-01T17:29:08.046Z,60.90
2018-09-01T17:31:39.448Z,61.00
2018-09-01T17:34:08.426Z,61.30
2018-09-01T17:36:37.646Z,61.50
2018-09-01T17:39:08.748Z,61.70
2018-09-01T17:41:37.747Z,63.40
2018-09-01T17:44:06.696Z,64.30
2018-09-01T17:46:35.663Z,65.20
2018-09-01T17:49:05.835Z,66.10
2018-09-01T17:51:34.828Z,66.50
2018-09-01T17:54:03.748Z,66.80
2018-09-01T17:56:32.717Z,67.40
2018-09-01T17:59:01.759Z,67.40
2018-09-01T18:01:31.468Z,67.50
2018-09-01T18:04:00.464Z,67.80
2018-09-01T18:06:29.444Z,67.60
2018-09-01T18:08:58.365Z,68.00
2018-09-01T18:11:27.321Z,68.20
2018-09-01T18:13:56.296Z,73.70
2018-09-01T18:16:25.328Z,68.80
2018-09-01T18:18:54.285Z,69.80
2018-09-01T18:21:23.237Z,70.40
2018-09-01T18:23:53.394Z,70.90
2018-09-01T18:26:29.590Z,71.50
2018-09-01T18:28:58.521Z,71.70
2018-09-01T18:31:28.032Z,72.60
2018-09-01T18:33:57.316Z,72.10
2018-09-01T18:36:26.263Z,72.60
2018-09-01T18:38:55.179Z,72.70
2018-09-01T18:41:24.144Z,72.70
2018-09-01T18:43:53.113Z,72.80
2018-09-01T18:46:22.280Z,73.00
2018-09-01T18:48:51.271Z,73.20
2018-09-01T18:51:20.299Z,73.20
2018-09-01T18:53:49.330Z,73.10
2018-09-01T18:56:18.510Z,73.60
2018-09-01T18:58:47.570Z,74.50
2018-09-01T19:01:16.863Z,75.10
2018-09-01T19:03:45.847Z,75.50
2018-09-01T19:06:14.863Z,75.70
2018-09-01T19:08:43.838Z,76.30
2018-09-01T19:11:18.910Z,76.60
2018-09-01T19:13:48.217Z,77.70
2018-09-01T19:16:17.490Z,78.30
2018-09-01T19:18:46.605Z,78.40
2018-09-01T19:21:15.919Z,78.70
2018-09-01T19:23:49.601Z,79.00
2018-09-01T19:26:18.889Z,79.20
2018-09-01T19:28:47.926Z,79.30
2018-09-01T19:31:17.006Z,79.40
2018-09-01T19:33:46.090Z,79.60
2018-09-01T19:36:15.067Z,80.10
2018-09-01T19:38:46.149Z,80.30
2018-09-01T19:41:15.118Z,80.20
2018-09-01T19:43:44.139Z,80.60
2018-09-01T19:46:13.163Z,80.80
2018-09-01T19:48:42.178Z,81.50
2018-09-01T19:51:11.215Z,81.80
2018-09-01T19:53:41.063Z,81.80
2018-09-01T19:56:10.203Z,81.60
2018-09-01T19:58:39.282Z,82.10
2018-09-01T20:01:08.381Z,82.70
2018-09-01T20:03:37.475Z,82.80
2018-09-01T20:06:06.666Z,83.10
2018-09-01T20:08:35.922Z,83.10
2018-09-01T20:11:04.924Z,83.40
2018-09-01T20:13:34.089Z,83.60
2018-09-01T20:16:03.199Z,83.90
2018-09-01T20:18:32.307Z,83.90
2018-09-01T20:21:01.653Z,83.90
2018-09-01T20:23:30.645Z,84.10
2018-09-01T20:26:00.460Z,84.30
2018-09-01T20:28:29.487Z,84.40
2018-09-01T20:30:58.506Z,84.40
2018-09-01T20:33:28.124Z,84.60
2018-09-01T20:35:58.505Z,84.20
2018-09-01T20:38:28.938Z,84.10
2018-09-01T20:40:58.052Z,84.20
2018-09-01T20:43:27.065Z,84.60
2018-09-01T20:45:56.157Z,85.40
2018-09-01T20:48:25.328Z,86.10
2018-09-01T20:50:55.722Z,87.10
2018-09-01T20:53:24.963Z,87.00
2018-09-01T20:55:54.228Z,86.90
2018-09-01T20:58:23.220Z,87.40
2018-09-01T21:00:52.254Z,87.70
2018-09-01T21:03:21.230Z,88.30
2018-09-01T21:05:50.269Z,88.90
2018-09-01T21:08:19.293Z,89.60
2018-09-01T21:10:48.362Z,89.90
2018-09-01T21:13:17.631Z,90.00
2018-09-01T21:15:46.772Z,90.10
2018-09-01T21:18:15.846Z,90.10
2018-09-01T21:20:44.962Z,89.90
2018-09-01T21:23:14.065Z,90.20
2018-09-01T21:25:43.161Z,90.20
2018-09-01T21:28:12.325Z,90.50
2018-09-01T21:30:41.658Z,90.60
2018-09-01T21:33:10.628Z,90.80
2018-09-01T21:35:39.816Z,90.80
2018-09-01T21:38:08.826Z,90.80
2018-09-01T21:40:37.877Z,90.80
2018-09-01T21:43:06.914Z,90.90
2018-09-01T21:45:36.470Z,90.90
2018-09-01T21:48:05.485Z,90.80
2018-09-01T21:50:34.544Z,90.60
2018-09-01T21:53:03.749Z,90.60
2018-09-01T21:55:32.934Z,90.60
2018-09-01T21:58:05.239Z,90.90
2018-09-01T22:00:35.122Z,91.30
2018-09-01T22:03:04.371Z,91.40
2018-09-01T22:05:33.372Z,91.30
2018-09-01T22:08:02.385Z,91.60
2018-09-01T22:10:31.402Z,91.30
2018-09-01T22:13:00.437Z,91.60
2018-09-01T22:15:29.442Z,91.80
2018-09-01T22:17:58.760Z,92.00
2018-09-01T22:20:30.948Z,91.50
2018-09-01T22:23:00.344Z,91.50
2018-09-01T22:25:29.378Z,92.00
2018-09-01T22:27:58.376Z,92.10
2018-09-01T22:30:27.358Z,92.50
2018-09-01T22:32:56.359Z,92.70
2018-09-01T22:35:25.328Z,92.80
2018-09-01T22:37:54.335Z,92.70
2018-09-01T22:40:23.321Z,92.60
2018-09-01T22:42:52.328Z,92.70
2018-09-01T22:45:21.353Z,92.70
2018-09-01T22:47:50.497Z,92.70
2018-09-01T22:50:19.485Z,93.00
2018-09-01T22:52:48.489Z,92.70
2018-09-01T22:55:17.531Z,93.10
2018-09-01T22:57:46.562Z,93.30
2018-09-01T23:00:15.582Z,93.30
2018-09-01T23:02:44.566Z,93.10
2018-09-01T23:05:13.658Z,93.40
2018-09-01T23:07:43.205Z,92.60
2018-09-01T23:10:12.261Z,93.10
2018-09-01T23:12:41.281Z,93.50
2018-09-01T23:15:10.346Z,93.60
2018-09-01T23:17:39.356Z,93.90
2018-09-01T23:20:08.340Z,93.70
2018-09-01T23:22:38.258Z,93.80
2018-09-01T23:25:07.352Z,93.90
2018-09-01T23:27:36.373Z,94.00
2018-09-01T23:30:05.353Z,94.20
2018-09-01T23:32:34.353Z,93.70
2018-09-01T23:35:03.484Z,94.00
2018-09-01T23:37:32.495Z,94.10
2018-09-01T23:40:01.519Z,94.00
2018-09-01T23:42:30.662Z,93.90
2018-09-01T23:44:59.662Z,94.20
2018-09-01T23:47:28.672Z,94.10
2018-09-01T23:52:36.752Z,94.10
2018-09-01T23:55:05.814Z,94.40
2018-09-01T23:57:34.885Z,93.90
